Time;durP1;ratioP1;P1;durP2;ratioP2;P2;SDS_P1;SDS_P2;PMS_P1;PMS_P2;Temp;Humidity;BMP_temperature;BMP_pressure;BME280_temperature;BME280_humidity;BME280_pressure;Samples;Min_cycle;Max_cycle;Signal;HPM_P1;HPM_P2
2023/02/08 00:03:13;;;;;;;12.95;7.28;;;;;;;0.00;100.00;101879.38;5075262;28;20046;-71
2023/02/08 00:05:39;;;;;;;10.13;6.88;;;;;;;0.13;100.00;101894.13;5074800;28;20451;-71
2023/02/08 00:08:04;;;;;;;11.23;7.68;;;;;;;0.12;100.00;101901.56;5073876;28;20107;-71
2023/02/08 00:10:30;;;;;;;10.68;7.47;;;;;;;0.49;100.00;101920.78;5073524;28;20031;-71
2023/02/08 00:12:55;;;;;;;10.77;7.53;;;;;;;-0.09;100.00;101881.44;5072959;28;20028;-71
2023/02/08 00:15:21;;;;;;;13.52;8.27;;;;;;;0.03;100.00;101826.16;5074694;28;20044;-72
2023/02/08 00:17:46;;;;;;;12.15;8.07;;;;;;;0.31;100.00;101909.94;5074652;28;20107;-71
2023/02/08 00:23:33;;;;;;;12.45;8.63;;;;;;;-0.01;100.00;101836.03;5074738;28;20090;-71
2023/02/08 00:25:58;;;;;;;12.23;8.05;;;;;;;0.06;100.00;101923.78;5074732;28;20441;-71
2023/02/08 00:28:24;;;;;;;11.77;8.55;;;;;;;-0.07;100.00;101849.88;5073984;28;20028;-72
2023/02/08 00:30:49;;;;;;;13.40;9.07;;;;;;;0.10;100.00;101863.16;5073576;28;20063;-71
2023/02/08 00:36:36;;;;;;;12.68;8.43;;;;;;;0.52;100.00;101918.38;5074937;28;20152;-71
2023/02/08 00:39:02;;;;;;;12.65;8.30;;;;;;;0.15;100.00;101844.19;5073975;28;20127;-71
2023/02/08 00:41:28;;;;;;;12.18;8.38;;;;;;;0.00;100.00;101859.38;5074429;28;20029;-71
2023/02/08 00:43:53;;;;;;;13.02;8.55;;;;;;;0.40;100.00;101905.34;5074085;28;20032;-71
2023/02/08 00:46:19;;;;;;;13.18;8.82;;;;;;;0.26;100.00;101903.88;5074087;28;20028;-72
2023/02/08 00:48:45;;;;;;;11.48;7.85;;;;;;;-0.34;100.00;101812.03;5074122;28;20025;-71
2023/02/08 00:51:12;;;;;;;12.73;8.48;;;;;;;0.19;100.00;101911.03;5074106;28;20032;-71
2023/02/08 00:56:59;;;;;;;13.45;8.15;;;;;;;0.02;100.00;101907.78;5074518;28;20035;-71
2023/02/08 00:59:26;;;;;;;12.38;8.38;;;;;;;-0.09;100.00;101912.31;5071881;28;20437;-71
2023/02/08 01:01:52;;;;;;;12.55;8.48;;;;;;;-0.77;100.00;101760.06;5074059;28;20053;-71
2023/02/08 01:04:17;;;;;;;13.98;8.77;;;;;;;0.29;100.00;101913.16;5072438;28;20467;-72
2023/02/08 01:10:06;;;;;;;10.83;7.00;;;;;;;-0.74;100.00;101847.56;5074280;28;20551;-71
2023/02/08 01:12:31;;;;;;;13.43;8.98;;;;;;;-0.72;100.00;101823.53;5073404;28;20265;-71
2023/02/08 01:14:57;;;;;;;13.50;9.43;;;;;;;-0.27;100.00;101918.06;5073098;28;20111;-70
2023/02/08 01:17:22;;;;;;;12.43;8.98;;;;;;;-0.05;100.00;101949.16;5073873;28;20523;-71
2023/02/08 01:19:48;;;;;;;16.70;9.32;;;;;;;-0.69;100.00;101863.63;5073397;28;20431;-71
2023/02/08 01:22:13;;;;;;;12.93;9.02;;;;;;;-0.46;100.00;101888.03;5073741;28;20021;-71
2023/02/08 01:24:38;;;;;;;15.52;10.13;;;;;;;-0.20;100.00;101958.41;5073108;28;20181;-71
2023/02/08 01:30:26;;;;;;;15.70;9.70;;;;;;;-0.11;100.00;101966.34;5073404;28;20129;-71
2023/02/08 01:36:13;;;;;;;10.05;6.75;;;;;;;-0.02;100.00;101996.75;5073722;28;20395;-71
2023/02/08 01:38:39;;;;;;;13.77;8.85;;;;;;;-0.76;100.00;101902.41;5073220;28;20469;-71
2023/02/08 01:41:07;;;;;;;14.23;9.02;;;;;;;-0.25;100.00;101979.84;5071725;28;20059;-71
2023/02/08 01:43:54;;;;;;;16.48;10.18;;;;;;;-0.48;100.00;101990.38;5073357;28;20025;-71
2023/02/08 01:49:41;;;;;;;11.07;7.90;;;;;;;-0.74;100.00;101887.50;5072802;28;20097;-71
2023/02/08 01:52:15;;;;;;;16.20;10.23;;;;;;;-0.13;100.00;102010.41;5070888;28;20020;-71
2023/02/08 01:54:49;;;;;;;15.63;10.50;;;;;;;-0.41;100.00;102007.34;5073253;28;20035;-71
2023/02/08 01:57:15;;;;;;;14.63;10.10;;;;;;;-0.18;100.00;102004.31;5071627;28;20028;-71
2023/02/08 02:00:09;;;;;;;16.90;10.55;;;;;;;-0.34;100.00;101971.91;5072492;28;20024;-71
2023/02/08 02:02:36;;;;;;;15.43;10.55;;;;;;;-0.32;100.00;101990.31;5057175;28;20042;-71
2023/02/08 02:05:01;;;;;;;17.20;10.68;;;;;;;-0.51;100.00;102001.81;5072767;28;20024;-71
2023/02/08 02:07:29;;;;;;;16.50;10.93;;;;;;;-0.01;100.00;102033.47;5073119;28;20023;-71
2023/02/08 02:10:09;;;;;;;15.48;10.88;;;;;;;-0.16;100.00;102040.22;5070782;28;20024;-71
2023/02/08 02:12:36;;;;;;;15.20;10.27;;;;;;;0.00;100.00;102044.34;5072608;28;20105;-71
2023/02/08 02:18:31;;;;;;;15.13;10.60;;;;;;;-0.54;100.00;101972.59;5062283;28;20136;-71
2023/02/08 02:21:14;;;;;;;17.17;11.38;;;;;;;-0.24;100.00;102063.97;5072855;28;20486;-72
2023/02/08 02:24:03;;;;;;;18.13;11.48;;;;;;;-0.05;100.00;102054.13;5070949;28;20064;-70
2023/02/08 02:26:35;;;;;;;16.90;10.30;;;;;;;-0.27;100.00;102058.84;5072114;28;20047;-72
2023/02/08 02:29:20;;;;;;;15.88;9.95;;;;;;;-0.75;100.00;101984.00;5072390;28;20064;-72
2023/02/08 02:32:07;;;;;;;15.95;10.90;;;;;;;-0.51;100.00;102076.75;5072518;28;20057;-71
2023/02/08 02:34:57;;;;;;;15.70;10.73;;;;;;;-0.27;100.00;102072.97;5072488;28;20055;-71
2023/02/08 02:38:01;;;;;;;14.85;10.10;;;;;;;-0.84;100.00;102027.63;5071986;28;20493;-71
2023/02/08 02:43:57;;;;;;;13.98;7.90;;;;;;;-0.46;100.00;102085.34;5072211;28;20036;-71
2023/02/08 02:46:25;;;;;;;15.43;10.75;;;;;;;-0.28;100.00;102091.25;5072300;28;20023;-72
2023/02/08 02:49:15;;;;;;;16.30;10.80;;;;;;;-0.41;100.00;102094.78;5070737;28;20169;-72
2023/02/08 02:52:00;;;;;;;15.32;10.73;;;;;;;-1.04;100.00;101999.16;5071818;28;20063;-72
2023/02/08 02:57:51;;;;;;;17.63;10.75;;;;;;;-0.88;100.00;102087.38;5072039;28;20036;-72
2023/02/08 03:00:22;;;;;;;17.25;11.18;;;;;;;-0.94;100.00;102006.34;5072037;28;20021;-71
2023/02/08 03:02:47;;;;;;;17.65;12.02;;;;;;;-1.36;100.00;101989.16;5070341;28;20024;-72
2023/02/08 03:09:01;;;;;;;17.73;11.32;;;;;;;-0.73;100.00;102101.44;5072225;28;20466;-71
2023/02/08 03:11:35;;;;;;;19.38;11.85;;;;;;;-1.47;100.00;101963.66;5050633;28;20128;-71
2023/02/08 03:17:59;;;;;;;19.80;11.75;;;;;;;-0.92;100.00;102110.47;5071542;28;20031;-71
2023/02/08 03:24:08;;;;;;;13.20;8.97;;;;;;;-1.26;100.00;102038.72;5072938;28;20350;-71
2023/02/08 03:26:56;;;;;;;18.33;11.38;;;;;;;-0.72;100.00;102130.59;5072336;28;20024;-72
2023/02/08 03:30:03;;;;;;;20.00;12.75;;;;;;;-0.75;100.00;102137.94;5043479;28;20028;-72
2023/02/08 03:36:01;;;;;;;20.38;12.85;;;;;;;-0.80;100.00;102125.22;5071849;28;20044;-72
2023/02/08 03:38:32;;;;;;;17.48;11.65;;;;;;;-1.21;100.00;102082.25;5071846;28;20036;-72
2023/02/08 03:41:00;;;;;;;17.45;11.65;;;;;;;-1.28;100.00;102067.72;5070597;28;20020;-72
2023/02/08 03:43:31;;;;;;;18.70;12.50;;;;;;;-0.90;100.00;102143.84;5069821;28;20551;-73
2023/02/08 03:46:12;;;;;;;23.33;14.13;;;;;;;-0.72;100.00;102151.44;5070277;28;20025;-72
2023/02/08 03:48:41;;;;;;;20.92;12.57;;;;;;;-0.92;100.00;102125.44;5071655;28;20033;-72
2023/02/08 03:51:08;;;;;;;19.67;13.15;;;;;;;-1.01;100.00;102144.06;5071447;28;20044;-72
2023/02/08 03:53:39;;;;;;;20.48;13.40;;;;;;;-0.90;100.00;102160.44;5069493;28;20035;-72
2023/02/08 03:56:13;;;;;;;21.77;14.40;;;;;;;-0.60;100.00;102164.56;5070014;28;20459;-71
2023/02/08 03:59:00;;;;;;;21.40;13.55;;;;;;;-1.53;100.00;102030.66;5071633;28;20024;-70
2023/02/08 04:04:50;;;;;;;31.73;20.43;;;;;;;-0.57;100.00;102172.19;5071458;28;20055;-72
2023/02/08 04:07:17;;;;;;;25.08;16.60;;;;;;;-0.57;100.00;102187.19;5071647;28;20024;-71
2023/02/08 04:09:43;;;;;;;24.30;13.40;;;;;;;1.12;100.00;102102.06;5070088;28;20125;-70
2023/02/08 04:12:09;;;;;;;31.52;17.83;;;;;;;-0.45;100.00;102092.91;5071330;28;20490;-70
2023/02/08 04:14:34;;;;;;;32.55;20.67;;;;;;;-0.26;100.00;102180.47;5071806;28;20364;-68
2023/02/08 04:17:00;;;;;;;27.30;16.48;;;;;;;-0.31;100.00;102196.03;5074396;28;20024;-70
2023/02/08 04:22:47;;;;;;;31.08;18.45;;;;;;;-0.53;100.00;102196.56;5074750;28;20442;-71
2023/02/08 04:25:13;;;;;;;22.83;16.02;;;;;;;-0.61;100.00;102212.78;5074572;28;20032;-71
2023/02/08 04:27:40;;;;;;;28.58;17.80;;;;;;;-1.11;100.00;102126.88;5074696;28;20020;-71
2023/02/08 04:30:06;;;;;;;27.58;19.33;;;;;;;-0.98;100.00;102154.19;5073321;28;20029;-70
2023/02/08 04:35:52;;;;;;;29.50;20.75;;;;;;;-1.53;100.00;102082.16;5074457;28;20118;-71
2023/02/08 04:38:18;;;;;;;41.05;25.90;;;;;;;-0.61;100.00;102231.88;5072668;28;20541;-71
2023/02/08 04:40:43;;;;;;;37.97;23.60;;;;;;;-1.22;100.00;102178.69;5073095;28;20032;-71
2023/02/08 04:43:08;;;;;;;27.15;16.58;;;;;;;-0.85;100.00;102233.91;5073005;28;20040;-70
2023/02/08 04:48:55;;;;;;;20.35;12.23;;;;;;;-1.35;100.00;102151.34;5074146;28;20539;-71
2023/02/08 04:51:20;;;;;;;19.63;13.07;;;;;;;-0.61;100.00;102181.94;5072922;28;20026;-71
2023/02/08 04:53:46;;;;;;;21.15;13.88;;;;;;;-1.44;100.00;102102.59;5074357;28;20063;-71
2023/02/08 04:59:33;;;;;;;16.60;9.73;;;;;;;-0.41;100.00;102257.16;5074054;28;20054;-71
2023/02/08 05:05:20;;;;;;;14.83;8.73;;;;;;;-1.25;100.00;102117.78;5074116;28;20168;-72
2023/02/08 05:11:07;;;;;;;16.65;11.23;;;;;;;-0.63;100.00;102249.28;5073995;28;20355;-71
2023/02/08 05:13:32;;;;;;;19.35;12.35;;;;;;;-1.00;100.00;102186.56;5072036;28;20028;-71
2023/02/08 05:15:58;;;;;;;19.05;11.88;;;;;;;-0.55;100.00;102280.53;5074175;28;20027;-71
2023/02/08 05:18:23;;;;;;;21.25;12.77;;;;;;;-0.99;100.00;102193.25;5072300;28;20081;-71
2023/02/08 05:24:11;;;;;;;16.92;10.75;;;;;;;-0.74;100.00;102261.97;5073380;28;20186;-71
2023/02/08 05:26:37;;;;;;;27.30;17.45;;;;;;;-0.88;100.00;102267.09;5073455;28;20399;-71
2023/02/08 05:29:02;;;;;;;22.25;15.05;;;;;;;-1.15;100.00;102220.63;5073842;28;20390;-72
2023/02/08 05:31:28;;;;;;;21.67;14.07;;;;;;;-1.23;100.00;102211.03;5073685;28;20025;-71
2023/02/08 05:33:53;;;;;;;21.90;14.32;;;;;;;-0.78;100.00;102265.94;5071814;28;20115;-71
2023/02/08 05:36:19;;;;;;;21.85;14.63;;;;;;;-0.80;100.00;102279.13;5073716;28;20046;-71
2023/02/08 05:38:45;;;;;;;22.77;13.90;;;;;;;-0.88;100.00;102284.56;5073484;28;20028;-71
2023/02/08 05:44:32;;;;;;;22.63;14.05;;;;;;;-1.04;100.00;102281.13;5074299;28;20108;-74
2023/02/08 05:46:57;;;;;;;23.30;13.63;;;;;;;-0.46;100.00;102203.59;5072734;28;20526;-70
2023/02/08 05:49:23;;;;;;;22.60;14.48;;;;;;;-1.21;100.00;102240.25;5072129;28;20034;-72
2023/02/08 05:51:49;;;;;;;22.77;13.80;;;;;;;-0.90;100.00;102295.22;5073422;28;20021;-73
2023/02/08 05:57:36;;;;;;;20.93;13.83;;;;;;;-0.78;100.00;102297.53;5073250;28;20032;-72
2023/02/08 06:00:05;;;;;;;20.60;12.27;;;;;;;-1.01;100.00;102293.78;5072581;28;20120;-72
2023/02/08 06:02:31;;;;;;;18.65;12.57;;;;;;;-0.70;100.00;102313.78;5073544;28;20052;-72
2023/02/08 06:08:18;;;;;;;18.37;10.93;;;;;;;-0.96;100.00;102307.38;5073002;28;20071;-72
2023/02/08 06:10:47;;;;;;;24.27;16.00;;;;;;;-1.04;100.00;102306.06;5071517;28;20020;-73
2023/02/08 06:13:12;;;;;;;29.38;18.73;;;;;;;-0.96;100.00;102305.75;5073161;28;20028;-72
2023/02/08 06:15:38;;;;;;;31.98;19.55;;;;;;;-0.65;100.00;102307.44;5072178;28;20031;-72
2023/02/08 06:18:03;;;;;;;42.35;24.95;;;;;;;-1.16;100.00;102230.53;5072612;28;20045;-72
2023/02/08 06:20:29;;;;;;;38.13;23.65;;;;;;;-1.40;100.00;102247.50;5071794;28;20037;-72
2023/02/08 06:22:55;;;;;;;33.00;19.75;;;;;;;-0.65;100.00;102314.94;5071319;28;20128;-72
2023/02/08 06:25:20;;;;;;;20.75;13.00;;;;;;;-0.95;100.00;102312.44;5072315;28;20442;-72
2023/02/08 06:27:45;;;;;;;21.20;12.32;;;;;;;-1.66;100.00;102174.50;5072102;28;20016;-72
2023/02/08 06:30:11;;;;;;;20.92;12.68;;;;;;;-0.93;100.00;102303.41;5072363;28;20051;-72
2023/02/08 06:32:37;;;;;;;18.30;11.93;;;;;;;-0.83;100.00;102302.25;5072631;28;20048;-71
2023/02/08 06:35:02;;;;;;;16.33;11.13;;;;;;;-0.83;100.00;102312.25;5071899;28;20103;-72
2023/02/08 06:37:28;;;;;;;17.95;11.18;;;;;;;-1.17;100.00;102246.31;5072697;28;20493;-71
2023/02/08 06:43:15;;;;;;;15.07;9.23;;;;;;;-0.83;100.00;102294.78;5072625;28;20058;-71
2023/02/08 06:49:02;;;;;;;15.18;9.73;;;;;;;-0.76;100.00;102295.97;5072621;28;20444;-72
2023/02/08 06:51:28;;;;;;;16.23;10.23;;;;;;;-0.73;100.00;102308.66;5072325;28;20028;-72
2023/02/08 06:53:53;;;;;;;16.50;10.43;;;;;;;-0.82;100.00;102301.50;5072554;28;20107;-72
2023/02/08 06:56:18;;;;;;;17.85;10.93;;;;;;;4.32;100.00;102236.97;5072884;28;20371;-72
2023/02/08 07:02:11;;;;;;;12.88;8.50;;;;;;;1.23;100.00;102171.88;5072229;28;20183;-72
2023/02/08 07:04:37;;;;;;;14.70;8.32;;;;;;;0.54;100.00;102178.63;5072266;28;20028;-73
2023/02/08 07:10:24;;;;;;;12.40;8.13;;;;;;;0.23;100.00;102243.81;5072255;28;20024;-72
2023/02/08 07:12:49;;;;;;;13.55;8.10;;;;;;;0.44;100.00;102252.38;5070163;28;20021;-72
2023/02/08 07:15:15;;;;;;;12.68;8.02;;;;;;;0.17;100.00;102152.63;5070489;28;20479;-73
2023/02/08 07:17:40;;;;;;;12.20;8.15;;;;;;;0.85;100.00;102250.22;5070401;28;20430;-72
2023/02/08 07:23:27;;;;;;;12.27;7.93;;;;;;;1.26;100.00;102237.16;5072334;28;20039;-72
2023/02/08 07:29:21;;;;;;;11.10;7.47;;;;;;;-0.16;100.00;102065.22;5072368;28;20031;-73
2023/02/08 07:31:46;;;;;;;13.32;7.60;;;;;;;0.97;100.00;102211.56;5070324;28;20036;-73
2023/02/08 07:34:11;;;;;;;11.35;7.03;;;;;;;0.84;100.00;102137.53;5070923;28;20024;-72
2023/02/08 07:36:37;;;;;;;11.23;7.25;;;;;;;0.56;100.00;102122.00;5072061;28;20464;-73
2023/02/08 07:39:03;;;;;;;12.10;7.13;;;;;;;0.71;100.00;102187.81;5071794;28;20458;-73
2023/02/08 07:41:28;;;;;;;9.95;6.82;;;;;;;0.34;100.00;102085.13;5071777;28;20089;-73
2023/02/08 07:43:53;;;;;;;10.95;6.68;;;;;;;-0.09;100.00;102073.88;5072009;28;20398;-71
2023/02/08 07:49:40;;;;;;;8.27;5.00;;;;;;;0.68;100.00;102142.59;5074669;28;20030;-73
2023/02/08 07:52:06;;;;;;;13.63;6.45;;;;;;;0.27;100.00;102062.28;5074102;28;20028;-73
2023/02/08 07:54:31;;;;;;;9.32;6.22;;;;;;;0.17;100.00;102050.13;5074635;28;20024;-73
2023/02/08 07:56:57;;;;;;;10.77;6.47;;;;;;;0.44;100.00;102119.81;5075425;28;20029;-73
2023/02/08 08:02:44;;;;;;;9.70;6.43;;;;;;;0.63;100.00;102114.03;5075592;28;20067;-72
2023/02/08 08:05:10;;;;;;;9.20;5.90;;;;;;;0.83;100.00;102085.78;5074789;28;20401;-74
2023/02/08 08:07:36;;;;;;;10.25;6.28;;;;;;;0.94;100.00;102121.28;5075183;28;20201;-72
2023/02/08 08:10:03;;;;;;;10.48;6.53;;;;;;;1.17;100.00;102128.19;5075347;28;20031;-72
2023/02/08 08:12:28;;;;;;;10.57;7.03;;;;;;;1.07;100.00;102123.56;5074550;28;20422;-72
2023/02/08 08:14:54;;;;;;;13.07;6.93;;;;;;;0.26;100.00;102040.56;5074767;28;20037;-72
2023/02/08 08:21:00;;;;;;;9.90;6.13;;;;;;;0.07;100.00;101966.34;5066516;28;20516;-72
2023/02/08 08:23:27;;;;;;;10.52;6.80;;;;;;;0.72;100.00;102101.94;5073592;28;20075;-71
2023/02/08 08:29:14;;;;;;;9.73;6.25;;;;;;;0.54;100.00;102104.44;5078396;28;20031;-72
2023/02/08 08:31:42;;;;;;;9.15;6.43;;;;;;;0.84;100.00;102097.47;5077280;28;20462;-72
2023/02/08 08:34:07;;;;;;;10.20;6.28;;;;;;;0.14;100.00;102010.81;5076114;28;20020;-71
2023/02/08 08:39:54;;;;;;;12.23;6.47;;;;;;;-0.01;100.00;102006.00;5074767;28;20031;-70
2023/02/08 08:42:20;;;;;;;10.88;6.32;;;;;;;0.15;100.00;102007.56;5074183;28;20016;-70
2023/02/08 08:44:45;;;;;;;13.48;6.78;;;;;;;0.62;100.00;102035.59;5073070;28;20112;-70
2023/02/08 08:47:11;;;;;;;10.50;6.97;;;;;;;1.13;100.00;102096.28;5074505;28;20020;-70
2023/02/08 08:49:37;;;;;;;13.07;7.38;;;;;;;1.04;100.00;102078.34;5073047;28;20027;-70
2023/02/08 08:52:04;;;;;;;13.70;6.82;;;;;;;1.15;100.00;102087.19;5074164;28;20029;-70
2023/02/08 08:54:30;;;;;;;11.45;7.13;;;;;;;1.22;100.00;102075.00;5072815;28;20075;-71
2023/02/08 08:56:56;;;;;;;11.68;6.40;;;;;;;0.49;100.00;101989.94;5073960;28;20044;-70
2023/02/08 08:59:21;;;;;;;12.20;6.97;;;;;;;1.38;100.00;102011.38;5073280;28;20025;-70
2023/02/08 09:01:46;;;;;;;13.55;8.07;;;;;;;0.92;100.00;102012.72;5074176;28;20070;-70
2023/02/08 09:07:34;;;;;;;10.93;6.40;;;;;;;0.92;100.00;102008.56;5074262;28;20405;-70
2023/02/08 09:09:59;;;;;;;9.93;6.55;;;;;;;1.13;100.00;102073.75;5072664;28;20115;-70
2023/02/08 09:12:25;;;;;;;10.23;6.63;;;;;;;0.85;100.00;101997.41;5072565;28;20082;-70
2023/02/08 09:18:12;;;;;;;8.65;5.82;;;;;;;1.01;100.00;102060.69;5073816;28;20093;-70
2023/02/08 09:20:38;;;;;;;11.30;5.88;;;;;;;1.28;100.00;102044.34;5073410;28;20032;-70
2023/02/08 09:23:03;;;;;;;11.65;7.18;;;;;;;1.12;100.00;101964.34;5072583;28;20024;-70
2023/02/08 09:25:28;;;;;;;11.38;6.70;;;;;;;1.87;100.00;102010.06;5072889;28;20178;-70
2023/02/08 09:27:54;;;;;;;9.00;6.30;;;;;;;1.27;100.00;102008.41;5073430;28;20020;-68
2023/02/08 09:30:19;;;;;;;8.38;5.85;;;;;;;1.57;100.00;102023.88;5073414;28;20032;-70
2023/02/08 09:32:45;;;;;;;10.25;6.03;;;;;;;1.62;100.00;102008.22;5072985;28;20030;-70
2023/02/08 09:38:32;;;;;;;11.23;6.67;;;;;;;2.01;100.00;102003.94;5073939;28;20059;-70
2023/02/08 09:44:37;;;;;;;9.13;4.83;;;;;;;1.70;100.00;102016.91;5073348;28;20517;-70
2023/02/08 09:47:20;;;;;;;9.52;5.85;;;;;;;1.32;100.00;101966.91;5071645;28;20139;-70
2023/02/08 09:49:54;;;;;;;9.77;6.35;;;;;;;1.53;100.00;102022.91;5072267;28;20036;-70
2023/02/08 09:52:26;;;;;;;9.70;6.50;;;;;;;0.92;100.00;101951.00;5072986;28;20021;-70
2023/02/08 09:54:58;;;;;;;11.93;6.65;;;;;;;1.82;100.00;102023.22;5073116;28;20032;-70
2023/02/08 09:57:28;;;;;;;11.60;7.00;;;;;;;1.35;100.00;101918.56;5073043;28;20473;-70
2023/02/08 10:00:03;;;;;;;12.20;7.28;;;;;;;1.94;100.00;102012.00;5072153;28;20036;-71
2023/02/08 10:02:33;;;;;;;11.63;6.53;;;;;;;1.50;100.00;102012.75;5070918;28;20385;-70
2023/02/08 10:05:04;;;;;;;9.80;6.25;;;;;;;1.18;100.00;101952.94;5072669;28;20078;-71
2023/02/08 10:07:31;;;;;;;;;;;;;;;1.92;100.00;102021.16;5071597;28;20042;-70
2023/02/08 10:10:03;;;;;;;10.45;6.28;;;;;;;1.06;100.00;101901.50;5072916;28;19951;-70
2023/02/08 10:13:00;;;;;;;11.43;6.70;;;;;;;2.08;100.00;102015.91;5071557;28;20055;-70
2023/02/08 10:16:01;;;;;;;10.98;7.28;;;;;;;1.33;100.00;102013.69;5072731;28;20032;-72
2023/02/08 10:18:50;;;;;;;10.73;6.53;;;;;;;1.00;100.00;102001.38;5067597;28;20517;-72
2023/02/08 10:21:34;;;;;;;10.75;7.18;;;;;;;1.34;100.00;102002.88;5072061;28;20084;-70
2023/02/08 10:24:08;;;;;;;12.65;7.85;;;;;;;1.86;100.00;101992.47;5070979;28;20123;-70
2023/02/08 10:26:52;;;;;;;11.32;7.38;;;;;;;1.42;100.00;101999.06;5072242;28;20090;-69
2023/02/08 10:32:58;;;;;;;13.25;7.53;;;;;;;2.08;100.00;101907.25;5072865;28;20123;-70
2023/02/08 10:35:36;;;;;;;9.80;6.47;;;;;;;1.86;100.00;101993.34;5072308;28;20112;-70
2023/02/08 10:41:30;;;;;;;6.57;4.57;;;;;;;1.82;100.00;101973.09;5072134;28;20043;-70
2023/02/08 10:44:12;;;;;;;10.02;6.75;;;;;;;1.49;100.00;101839.78;5072277;28;20097;-71
2023/02/08 10:50:20;;;;;;;9.43;6.82;;;;;;;2.09;100.00;101986.69;5072679;28;20039;-71
2023/02/08 10:52:47;;;;;;;11.35;7.03;;;;;;;2.88;100.00;101946.16;5071121;28;20039;-73
2023/02/08 10:55:17;;;;;;;10.00;6.68;;;;;;;1.79;100.00;101876.03;5071154;28;20021;-71
2023/02/08 10:57:47;;;;;;;9.98;6.53;;;;;;;2.89;100.00;101955.41;5072198;28;20478;-72
2023/02/08 11:00:25;;;;;;;9.35;6.55;;;;;;;2.73;100.00;101978.25;5072261;28;20016;-72
2023/02/08 11:06:26;;;;;;;9.40;6.53;;;;;;;2.60;100.00;101925.88;5071797;28;20035;-72
2023/02/08 11:08:55;;;;;;;10.63;6.93;;;;;;;3.13;100.00;101970.47;5071905;28;20107;-71
2023/02/08 11:11:21;;;;;;;11.43;7.38;;;;;;;2.75;100.00;101979.16;5072040;28;20028;-71
2023/02/08 11:13:51;;;;;;;11.60;7.03;;;;;;;2.16;100.00;101906.72;5071586;28;20056;-71
2023/02/08 11:16:23;;;;;;;8.65;6.05;;;;;;;2.48;100.00;101974.00;5070376;28;20037;-71
2023/02/08 11:22:21;;;;;;;8.55;5.18;;;;;;;2.89;100.00;101952.88;5060836;28;20047;-70
2023/02/08 11:28:28;;;;;;;10.65;5.35;;;;;;;2.65;100.00;101900.13;5076124;28;20086;-70
2023/02/08 11:31:07;;;;;;;9.07;6.22;;;;;;;2.31;100.00;101898.91;5075979;28;20025;-70
2023/02/08 11:33:32;;;;;;;10.07;6.97;;;;;;;2.47;100.00;101951.34;5075613;28;20031;-71
2023/02/08 11:36:02;;;;;;;9.65;6.88;;;;;;;2.97;100.00;101964.03;5075273;28;20469;-70
2023/02/08 11:41:53;;;;;;;15.27;7.25;;;;;;;3.03;100.00;101945.81;5075841;28;20059;-70
2023/02/08 11:47:40;;;;;;;9.77;6.50;;;;;;;2.83;100.00;101857.25;5075980;28;20043;-70
2023/02/08 11:53:39;;;;;;;7.88;5.43;;;;;;;3.66;100.00;101944.56;5075832;28;20178;-73
2023/02/08 11:56:04;;;;;;;11.60;7.57;;;;;;;3.53;100.00;101968.44;5073529;28;20060;-70
2023/02/08 11:58:30;;;;;;;11.80;7.88;;;;;;;2.70;100.00;101917.88;5075120;28;20489;-71
2023/02/08 12:00:57;;;;;;;10.70;7.43;;;;;;;2.64;100.00;101827.28;5073746;28;20062;-73
2023/02/08 12:03:37;;;;;;;10.90;7.38;;;;;;;3.53;100.00;101977.69;5073760;28;20123;-70
2023/02/08 12:06:33;;;;;;;9.63;6.22;;;;;;;3.33;100.00;101977.00;5075276;28;20025;-72
2023/02/08 12:09:17;;;;;;;11.68;6.55;;;;;;;2.75;100.00;101986.69;5075620;28;20028;-71
2023/02/08 12:11:47;;;;;;;9.88;6.90;;;;;;;3.05;100.00;101977.72;5075299;28;20020;-71
2023/02/08 12:14:34;;;;;;;10.00;7.00;;;;;;;3.24;100.00;101987.59;5075168;28;20535;-71
2023/02/08 12:17:32;;;;;;;10.02;6.55;;;;;;;2.97;100.00;101985.81;5075171;28;20029;-72
2023/02/08 12:20:07;;;;;;;9.45;6.80;;;;;;;3.26;100.00;102005.25;5074667;28;20047;-73
2023/02/08 12:22:38;;;;;;;10.85;6.82;;;;;;;3.06;100.00;101918.28;5074653;28;20051;-73
2023/02/08 12:25:15;;;;;;;11.82;6.85;;;;;;;4.36;100.00;101991.19;5074533;28;20044;-70
2023/02/08 12:27:56;;;;;;;11.32;6.90;;;;;;;2.75;100.00;102014.31;5074727;28;20103;-71
2023/02/08 12:30:26;;;;;;;9.98;6.47;;;;;;;2.37;100.00;101902.50;5073372;28;20485;-71
2023/02/08 12:33:21;;;;;;;10.27;7.38;;;;;;;3.40;100.00;101989.84;5074942;28;20032;-71
2023/02/08 12:35:46;;;;;;;11.48;7.50;;;;;;;3.81;100.00;101985.28;5072499;28;20131;-72
2023/02/08 12:41:20;;;;;;;13.07;8.60;;;;;;;3.47;100.00;101989.22;5074682;28;20040;-71
2023/02/08 12:44:21;;;;;;;10.73;7.40;;;;;;;3.05;100.00;101995.28;5072903;28;20024;-71
2023/02/08 12:46:54;;;;;;;10.63;6.97;;;;;;;3.24;100.00;102010.22;5042499;28;20581;-71
2023/02/08 12:49:33;;;;;;;10.43;7.50;;;;;;;3.19;100.00;101928.78;5073611;28;20494;-71
2023/02/08 12:52:08;;;;;;;11.60;8.02;;;;;;;2.84;100.00;102003.72;5074397;28;20031;-71
2023/02/08 12:54:43;;;;;;;11.07;6.85;;;;;;;3.27;100.00;101995.25;5073091;28;20028;-71
2023/02/08 12:57:15;;;;;;;10.00;6.70;;;;;;;2.60;100.00;101924.25;5073022;28;20021;-71
2023/02/08 13:00:27;;;;;;;11.90;6.40;;;;;;;3.63;100.00;102000.63;5074380;28;20055;-71
2023/02/08 13:03:07;;;;;;;10.48;6.72;;;;;;;3.16;100.00;101911.13;5067856;28;20071;-71
2023/02/08 13:05:38;;;;;;;12.00;7.25;;;;;;;2.58;100.00;101913.28;5072855;28;20028;-71
2023/02/08 13:11:25;;;;;;;10.15;7.03;;;;;;;3.57;100.00;102012.13;5074071;28;20406;-73
2023/02/08 13:14:05;;;;;;;12.60;7.20;;;;;;;3.54;100.00;102015.44;5072333;28;20047;-71
2023/02/08 13:20:04;;;;;;;14.20;9.03;;;;;;;4.23;100.00;102000.06;5074124;28;20078;-71
2023/02/08 13:22:38;;;;;;;11.75;8.13;;;;;;;4.21;100.00;102010.88;5073893;28;20093;-71
2023/02/08 13:25:13;;;;;;;11.80;7.50;;;;;;;3.21;100.00;101969.06;5073361;28;20024;-72
2023/02/08 13:27:38;;;;;;;13.77;8.73;;;;;;;3.78;100.00;102001.16;5073981;28;20029;-71
2023/02/08 13:30:05;;;;;;;12.15;7.53;;;;;;;3.27;100.00;101955.03;5071711;28;20036;-71
2023/02/08 13:32:44;;;;;;;10.05;7.10;;;;;;;3.67;100.00;101989.00;5074266;28;20032;-71
2023/02/08 13:35:14;;;;;;;10.82;6.95;;;;;;;3.25;100.00;101923.09;5073299;28;20028;-71
2023/02/08 13:37:41;;;;;;;11.20;7.20;;;;;;;2.69;100.00;101912.81;5073488;28;20174;-70
2023/02/08 13:40:09;;;;;;;13.60;8.18;;;;;;;3.58;100.00;102003.81;5073416;28;20103;-70
2023/02/08 13:42:46;;;;;;;11.40;7.53;;;;;;;3.23;100.00;101914.66;5073634;28;20032;-71
2023/02/08 13:45:40;;;;;;;11.52;7.50;;;;;;;3.39;100.00;101988.09;5071559;28;20025;-71
2023/02/08 13:48:10;;;;;;;10.50;6.80;;;;;;;2.82;100.00;101852.16;5073517;28;20394;-70
2023/02/08 13:50:47;;;;;;;11.10;7.30;;;;;;;3.06;100.00;101994.50;5072814;28;20013;-70
2023/02/08 13:53:13;;;;;;;9.82;6.93;;;;;;;2.98;100.00;101988.38;5073163;28;20032;-71
2023/02/08 13:59:00;;;;;;;14.93;8.40;;;;;;;3.12;100.00;101929.41;5073063;28;20038;-71
2023/02/08 14:04:51;;;;;;;16.08;8.85;;;;;;;3.83;100.00;102001.28;5073308;28;20528;-72
2023/02/08 14:07:38;;;;;;;12.45;7.72;;;;;;;3.01;100.00;102005.22;5072841;28;20025;-72
2023/02/08 14:13:36;;;;;;;8.50;5.78;;;;;;;2.59;100.00;101964.34;5073045;28;20035;-72
2023/02/08 14:16:23;;;;;;;12.63;8.00;;;;;;;2.35;100.00;101983.53;5072721;28;20017;-72
2023/02/08 14:22:10;;;;;;;13.52;7.72;;;;;;;2.29;100.00;101979.13;5071611;28;20060;-71
2023/02/08 14:24:43;;;;;;;9.75;6.70;;;;;;;2.23;100.00;101935.41;5071271;28;20048;-70
2023/02/08 14:27:25;;;;;;;12.18;7.50;;;;;;;2.59;100.00;101976.91;5072233;28;20127;-70
2023/02/08 14:30:17;;;;;;;11.40;8.15;;;;;;;2.27;100.00;101988.25;5071088;28;20103;-70
2023/02/08 14:32:46;;;;;;;13.77;8.07;;;;;;;2.36;100.00;101985.22;5066795;28;20031;-70
2023/02/08 14:35:11;;;;;;;12.95;7.03;;;;;;;1.84;100.00;101984.03;5072536;28;20028;-71
2023/02/08 14:41:01;;;;;;;9.55;6.72;;;;;;;1.92;100.00;101966.00;5073605;28;20554;-70
2023/02/08 14:43:29;;;;;;;11.43;7.43;;;;;;;1.99;100.00;101988.00;5071983;28;20501;-70